createdAt,value
2022-10-31T00:01:46.288Z,17.15
2022-10-31T00:04:15.566Z,21.98
2022-10-31T00:06:44.887Z,18.63
2022-10-31T00:09:15.857Z,21.45
2022-10-31T00:11:45.179Z,17.75
2022-10-31T00:14:14.408Z,18.52
2022-10-31T00:16:43.911Z,17.63
2022-10-31T00:19:13.196Z,18.65
2022-10-31T00:21:42.611Z,21.00
2022-10-31T00:24:12.570Z,19.88
2022-10-31T00:26:43.477Z,19.33
2022-10-31T00:29:13.852Z,20.00
2022-10-31T00:31:43.229Z,18.92
2022-10-31T00:34:12.395Z,18.85
2022-10-31T00:36:42.284Z,17.90
2022-10-31T00:39:16.011Z,17.67
2022-10-31T00:44:16.434Z,19.50
2022-10-31T00:46:45.788Z,18.90
2022-10-31T00:49:14.993Z,19.15
2022-10-31T00:51:44.595Z,19.38
2022-10-31T00:54:13.840Z,18.42
2022-10-31T00:56:43.313Z,18.30
2022-10-31T00:59:13.847Z,19.63
2022-10-31T01:01:44.619Z,17.90
2022-10-31T01:04:14.030Z,17.88
2022-10-31T01:06:43.375Z,18.20
2022-10-31T01:09:12.627Z,20.30
2022-10-31T01:11:42.001Z,18.05
2022-10-31T01:14:13.739Z,17.77
2022-10-31T01:16:43.254Z,16.42
2022-10-31T01:19:12.400Z,21.55
2022-10-31T01:21:41.788Z,19.65
2022-10-31T01:24:11.423Z,18.60
2022-10-31T01:26:41.590Z,20.15
2022-10-31T01:29:13.282Z,21.13
2022-10-31T01:31:43.683Z,21.52
2022-10-31T01:34:16.824Z,22.55
2022-10-31T01:36:52.375Z,23.90
2022-10-31T01:39:22.380Z,19.98
2022-10-31T01:41:54.129Z,21.83
2022-10-31T01:45:01.089Z,23.23
2022-10-31T01:47:39.625Z,22.67
2022-10-31T01:50:22.817Z,21.85
2022-10-31T01:52:54.674Z,23.27
2022-10-31T01:55:30.442Z,23.17
2022-10-31T01:58:06.935Z,19.10
2022-10-31T02:00:37.943Z,19.95
2022-10-31T02:03:07.635Z,19.95
2022-10-31T02:05:37.932Z,24.30
2022-10-31T02:08:12.479Z,20.88
2022-10-31T02:10:44.866Z,25.73
2022-10-31T02:13:15.215Z,23.98
2022-10-31T02:15:53.715Z,23.13
2022-10-31T02:18:24.387Z,23.55
2022-10-31T02:21:04.327Z,23.63
2022-10-31T02:24:00.713Z,24.13
2022-10-31T02:27:04.936Z,22.08
2022-10-31T02:30:04.194Z,24.17
2022-10-31T02:32:52.560Z,27.60
2022-10-31T02:35:35.791Z,24.95
2022-10-31T02:38:15.395Z,24.63
2022-10-31T02:40:53.240Z,22.23
2022-10-31T02:43:37.366Z,23.42
2022-10-31T02:46:13.092Z,25.83
2022-10-31T02:48:46.762Z,27.25
2022-10-31T02:51:17.583Z,26.13
2022-10-31T02:53:46.883Z,28.48
2022-10-31T02:56:18.116Z,29.27
2022-10-31T02:58:51.080Z,29.55
2022-10-31T03:01:51.444Z,29.73
2022-10-31T03:04:48.540Z,28.58
2022-10-31T03:07:29.834Z,29.80
2022-10-31T03:10:11.702Z,30.00
2022-10-31T03:12:50.179Z,32.22
2022-10-31T03:15:25.819Z,29.25
2022-10-31T03:18:01.333Z,26.38
2022-10-31T03:20:38.653Z,27.00
2022-10-31T03:23:13.462Z,30.85
2022-10-31T03:25:44.270Z,29.88
2022-10-31T03:31:21.715Z,31.98
2022-10-31T03:33:53.323Z,28.65
2022-10-31T03:36:25.404Z,27.63
2022-10-31T03:38:56.327Z,27.90
2022-10-31T03:41:31.195Z,26.85
2022-10-31T03:44:05.370Z,26.92
2022-10-31T03:46:36.485Z,25.88
2022-10-31T03:49:06.663Z,23.52
2022-10-31T03:51:46.044Z,23.17
2022-10-31T03:54:23.177Z,24.63
2022-10-31T03:56:56.255Z,24.30
2022-10-31T03:59:31.361Z,25.15
2022-10-31T04:02:06.419Z,27.90
2022-10-31T04:04:37.306Z,27.30
2022-10-31T04:07:11.097Z,26.65
2022-10-31T04:09:45.113Z,26.60
2022-10-31T04:12:18.029Z,27.40
2022-10-31T04:15:13.579Z,26.02
2022-10-31T04:17:47.492Z,31.98
2022-10-31T04:20:19.454Z,29.45
2022-10-31T04:22:50.196Z,30.17
2022-10-31T04:25:19.652Z,31.02
2022-10-31T04:27:48.809Z,29.83
2022-10-31T04:30:18.351Z,29.05
2022-10-31T04:32:47.701Z,27.27
2022-10-31T04:35:17.222Z,29.63
2022-10-31T04:37:46.824Z,27.05
2022-10-31T04:40:18.412Z,29.02
2022-10-31T04:43:06.214Z,28.05
2022-10-31T04:45:35.652Z,26.90
2022-10-31T04:48:05.293Z,28.10
2022-10-31T04:50:37.391Z,29.27
2022-10-31T04:53:06.654Z,28.98
2022-10-31T04:55:44.443Z,27.55
2022-10-31T04:58:20.123Z,30.63
2022-10-31T05:00:49.606Z,28.00
2022-10-31T05:03:18.790Z,26.77
2022-10-31T05:05:50.065Z,27.35
2022-10-31T05:08:19.398Z,27.02
2022-10-31T05:10:53.087Z,28.75
2022-10-31T05:16:17.064Z,24.67
2022-10-31T05:19:05.252Z,27.48
2022-10-31T05:21:54.671Z,27.17
2022-10-31T05:24:23.929Z,24.25
2022-10-31T05:26:54.699Z,25.55
2022-10-31T05:29:24.064Z,27.40
2022-10-31T05:31:54.391Z,24.08
2022-10-31T05:34:43.796Z,23.75
2022-10-31T05:37:36.385Z,28.73
2022-10-31T05:40:08.547Z,27.48
2022-10-31T05:42:41.680Z,26.02
2022-10-31T05:45:12.663Z,26.48
2022-10-31T05:48:04.063Z,25.60
2022-10-31T05:50:53.422Z,25.77
2022-10-31T05:53:22.897Z,28.17
2022-10-31T05:55:52.210Z,28.58
2022-10-31T05:58:25.422Z,30.63
2022-10-31T06:01:06.808Z,26.38
2022-10-31T06:03:36.481Z,27.77
2022-10-31T06:06:08.527Z,28.77
2022-10-31T06:08:40.914Z,27.20
2022-10-31T06:11:16.576Z,27.33
2022-10-31T06:14:06.803Z,27.98
2022-10-31T06:16:49.866Z,31.65
2022-10-31T06:19:39.706Z,29.38
2022-10-31T06:24:38.482Z,28.55
2022-10-31T06:27:20.409Z,30.70
2022-10-31T06:32:32.384Z,24.17
2022-10-31T06:37:31.381Z,27.60
2022-10-31T06:40:08.274Z,28.50
2022-10-31T06:43:01.973Z,28.73
2022-10-31T06:45:34.511Z,29.02
2022-10-31T06:48:23.346Z,29.27
2022-10-31T06:51:31.716Z,29.23
2022-10-31T06:54:02.446Z,29.05
2022-10-31T06:56:31.961Z,29.85
2022-10-31T06:59:02.076Z,29.60
2022-10-31T07:02:00.692Z,32.70
2022-10-31T07:04:30.087Z,32.30
2022-10-31T07:06:59.719Z,31.63
2022-10-31T07:09:29.106Z,31.77
2022-10-31T07:12:00.932Z,32.15
2022-10-31T07:14:32.065Z,27.75
2022-10-31T07:19:38.343Z,28.13
2022-10-31T07:24:37.663Z,30.55
2022-10-31T07:27:16.674Z,30.52
2022-10-31T07:29:47.949Z,31.80
2022-10-31T07:32:20.315Z,33.58
2022-10-31T07:34:55.308Z,34.95
2022-10-31T07:37:30.487Z,35.55
2022-10-31T07:40:01.572Z,34.55
2022-10-31T07:42:37.997Z,36.85
2022-10-31T07:45:10.365Z,42.20
2022-10-31T07:48:04.383Z,33.15
2022-10-31T07:50:52.562Z,33.75
2022-10-31T07:53:22.113Z,37.60
2022-10-31T07:55:54.982Z,42.03
2022-10-31T07:58:30.419Z,35.03
2022-10-31T08:01:01.985Z,31.88
2022-10-31T08:03:42.830Z,34.35
2022-10-31T08:06:38.245Z,35.60
2022-10-31T08:09:29.651Z,36.97
2022-10-31T08:12:02.535Z,33.20
2022-10-31T08:14:33.989Z,36.17
2022-10-31T08:17:03.809Z,37.35
2022-10-31T08:19:44.616Z,38.17
2022-10-31T08:22:16.771Z,38.20
2022-10-31T08:25:11.985Z,41.03
2022-10-31T08:27:43.124Z,45.42
2022-10-31T08:30:20.266Z,44.20
2022-10-31T08:33:14.350Z,49.22
2022-10-31T08:36:20.409Z,49.03
2022-10-31T08:38:54.600Z,50.33
2022-10-31T08:41:27.312Z,49.05
2022-10-31T08:43:56.551Z,45.88
2022-10-31T08:48:55.824Z,55.55
2022-10-31T08:51:27.614Z,62.42
2022-10-31T08:53:59.113Z,56.70
2022-10-31T08:56:28.538Z,54.00
2022-10-31T08:58:57.871Z,48.10
2022-10-31T09:01:37.840Z,49.33
2022-10-31T09:04:08.673Z,46.25
2022-10-31T09:07:08.025Z,46.88
2022-10-31T09:09:35.339Z,47.15
2022-10-31T09:12:05.123Z,44.97
2022-10-31T09:14:46.086Z,42.28
2022-10-31T09:20:14.795Z,35.45
2022-10-31T09:22:47.899Z,37.08
2022-10-31T09:25:17.184Z,36.80
2022-10-31T09:27:52.614Z,34.80
2022-10-31T09:32:58.305Z,32.88
2022-10-31T09:35:29.529Z,36.20
2022-10-31T09:38:04.313Z,35.42
2022-10-31T09:40:37.299Z,36.78
2022-10-31T09:43:16.763Z,36.88
2022-10-31T09:45:58.227Z,34.40
2022-10-31T09:49:03.571Z,33.90
2022-10-31T09:51:55.965Z,33.42
2022-10-31T09:54:37.883Z,31.52
2022-10-31T09:57:12.992Z,32.67
2022-10-31T09:59:46.532Z,32.25
2022-10-31T10:02:24.163Z,30.85
2022-10-31T10:04:59.415Z,33.47
2022-10-31T10:07:37.723Z,32.53
2022-10-31T10:10:38.497Z,33.15
2022-10-31T10:13:54.883Z,32.35
2022-10-31T10:16:41.230Z,31.17
2022-10-31T10:19:23.037Z,30.58
2022-10-31T10:22:00.886Z,33.45
2022-10-31T10:24:55.546Z,31.85
2022-10-31T10:27:33.311Z,32.83
2022-10-31T10:30:07.886Z,30.63
2022-10-31T10:32:49.297Z,34.47
2022-10-31T10:35:27.019Z,29.55
2022-10-31T10:38:11.143Z,31.92
2022-10-31T10:40:41.763Z,32.08
2022-10-31T10:43:26.368Z,30.67
2022-10-31T10:46:37.043Z,29.55
2022-10-31T10:49:18.588Z,25.42
2022-10-31T10:54:49.036Z,27.00
2022-10-31T10:57:44.025Z,25.90
2022-10-31T11:00:23.967Z,26.63
2022-10-31T11:02:54.202Z,26.15
2022-10-31T11:05:30.397Z,24.58
2022-10-31T11:07:59.640Z,27.75
2022-10-31T11:13:06.801Z,25.13
2022-10-31T11:15:51.190Z,24.75
2022-10-31T11:21:01.608Z,23.08
2022-10-31T11:23:32.003Z,23.30
2022-10-31T11:26:03.380Z,23.80
2022-10-31T11:28:36.050Z,22.65
2022-10-31T11:31:14.575Z,21.55
2022-10-31T11:33:50.424Z,19.63
2022-10-31T11:36:25.422Z,19.23
2022-10-31T11:38:56.098Z,20.10
2022-10-31T11:41:30.178Z,22.55
2022-10-31T11:44:02.654Z,20.80
2022-10-31T11:46:37.996Z,18.55
2022-10-31T11:49:23.767Z,18.90
2022-10-31T11:51:56.767Z,19.90
2022-10-31T11:54:29.767Z,18.45
2022-10-31T11:56:59.235Z,19.00
2022-10-31T11:59:31.416Z,19.95
2022-10-31T12:02:03.631Z,18.33
2022-10-31T12:04:44.289Z,18.70
2022-10-31T12:07:13.841Z,17.77
2022-10-31T12:12:44.231Z,17.13
2022-10-31T12:15:32.525Z,16.60
2022-10-31T12:18:49.788Z,18.40
2022-10-31T12:21:31.838Z,17.77
2022-10-31T12:24:15.666Z,19.30
2022-10-31T12:26:59.596Z,17.10
2022-10-31T12:29:44.358Z,19.02
2022-10-31T12:32:30.169Z,18.52
2022-10-31T12:35:25.652Z,18.70
2022-10-31T12:38:19.180Z,16.08
2022-10-31T12:41:10.971Z,17.05
2022-10-31T12:43:49.163Z,18.05
2022-10-31T12:46:27.634Z,19.85
2022-10-31T12:49:19.372Z,18.27
2022-10-31T12:51:59.267Z,19.38
2022-10-31T12:54:48.134Z,19.67
2022-10-31T12:57:25.355Z,18.17
2022-10-31T13:00:00.336Z,17.25
2022-10-31T13:02:34.340Z,18.70
2022-10-31T13:05:09.943Z,17.83
2022-10-31T13:07:45.411Z,19.08
2022-10-31T13:10:21.815Z,19.77
2022-10-31T13:12:55.352Z,21.20
2022-10-31T13:15:28.114Z,19.05
2022-10-31T13:18:00.825Z,18.92
2022-10-31T13:20:34.433Z,20.10
2022-10-31T13:23:23.831Z,19.70
2022-10-31T13:26:09.109Z,20.50
2022-10-31T13:28:43.167Z,19.55
2022-10-31T13:31:12.660Z,19.05
2022-10-31T13:33:49.471Z,19.45
2022-10-31T13:36:28.449Z,20.17
2022-10-31T13:39:04.588Z,20.25
2022-10-31T13:41:42.912Z,20.58
2022-10-31T13:44:24.994Z,18.97
2022-10-31T13:46:55.300Z,18.52
2022-10-31T13:49:39.588Z,19.70
2022-10-31T13:52:17.005Z,19.40
2022-10-31T13:54:50.147Z,22.63
2022-10-31T13:57:22.190Z,19.90
2022-10-31T13:59:55.122Z,23.88
2022-10-31T14:02:29.990Z,20.33
2022-10-31T14:05:02.232Z,18.45
2022-10-31T14:07:33.637Z,20.33
2022-10-31T14:10:07.072Z,20.33
2022-10-31T14:12:41.153Z,19.65
2022-10-31T14:15:19.092Z,22.10
2022-10-31T14:17:50.952Z,20.98
2022-10-31T14:20:41.287Z,23.08
2022-10-31T14:23:50.730Z,21.58
2022-10-31T14:26:36.135Z,20.55
2022-10-31T14:29:25.918Z,20.65
2022-10-31T14:31:58.253Z,18.42
2022-10-31T14:34:32.105Z,19.67
2022-10-31T14:37:35.004Z,18.75
2022-10-31T14:40:19.606Z,17.00
2022-10-31T14:43:07.144Z,19.83
2022-10-31T14:45:48.764Z,18.45
2022-10-31T14:48:44.132Z,19.67
2022-10-31T14:51:17.209Z,17.77
2022-10-31T14:53:50.527Z,18.23
2022-10-31T14:56:25.897Z,18.42
2022-10-31T14:59:00.040Z,18.75
2022-10-31T15:01:32.262Z,17.60
2022-10-31T15:04:24.299Z,17.10
2022-10-31T15:07:00.233Z,16.60
2022-10-31T15:09:32.072Z,16.67
2022-10-31T15:12:02.060Z,17.52
2022-10-31T15:14:33.815Z,17.85
2022-10-31T15:17:05.679Z,17.15
2022-10-31T15:19:37.655Z,15.75
2022-10-31T15:22:07.909Z,16.48
2022-10-31T15:24:39.873Z,17.42
2022-10-31T15:27:15.362Z,17.20
2022-10-31T15:29:53.441Z,17.35
2022-10-31T15:32:25.142Z,16.45
2022-10-31T15:34:56.656Z,16.77
2022-10-31T15:37:27.877Z,18.52
2022-10-31T15:39:57.542Z,18.88
2022-10-31T15:45:06.685Z,18.27
2022-10-31T15:47:38.048Z,19.13
2022-10-31T15:50:21.064Z,19.10
2022-10-31T15:52:52.178Z,19.42
2022-10-31T15:55:23.837Z,19.17
2022-10-31T15:57:56.211Z,22.23
2022-10-31T16:00:30.338Z,19.50
2022-10-31T16:03:27.405Z,20.42
2022-10-31T16:05:58.295Z,20.45
2022-10-31T16:08:38.195Z,19.25
2022-10-31T16:11:24.580Z,19.83
2022-10-31T16:14:00.572Z,19.30
2022-10-31T16:16:35.565Z,21.33
2022-10-31T16:19:08.413Z,18.65
2022-10-31T16:21:40.546Z,18.48
2022-10-31T16:24:20.913Z,18.23
2022-10-31T16:26:52.138Z,18.17
2022-10-31T16:29:30.123Z,19.15
2022-10-31T16:32:01.009Z,20.50
2022-10-31T16:34:30.324Z,19.95
2022-10-31T16:39:28.664Z,16.92
2022-10-31T16:41:59.005Z,20.10
2022-10-31T16:44:29.339Z,18.45
2022-10-31T16:47:15.259Z,22.38
2022-10-31T16:49:46.056Z,24.35
2022-10-31T16:52:15.643Z,22.10
2022-10-31T16:54:44.852Z,22.27
2022-10-31T16:57:19.536Z,26.65
2022-10-31T16:59:50.814Z,29.90
2022-10-31T17:02:22.258Z,27.30
2022-10-31T17:04:55.643Z,28.05
2022-10-31T17:07:26.509Z,26.55
2022-10-31T17:09:55.683Z,23.83
2022-10-31T17:14:57.808Z,23.05
2022-10-31T17:17:28.909Z,26.70
2022-10-31T17:19:58.297Z,23.80
2022-10-31T17:24:56.838Z,23.92
2022-10-31T17:29:55.481Z,25.92
2022-10-31T17:32:24.816Z,27.02
2022-10-31T17:34:55.599Z,21.90
2022-10-31T17:37:25.291Z,24.70
2022-10-31T17:42:23.555Z,21.90
2022-10-31T17:44:52.858Z,23.52
2022-10-31T17:47:22.211Z,25.02
2022-10-31T17:49:53.233Z,22.58
2022-10-31T17:52:24.581Z,21.52
2022-10-31T17:54:53.855Z,21.58
2022-10-31T17:59:52.303Z,21.67
2022-10-31T18:04:50.892Z,20.63
2022-10-31T18:07:20.338Z,21.27
2022-10-31T18:12:20.278Z,23.15
2022-10-31T18:14:49.403Z,23.95
2022-10-31T18:17:18.765Z,22.05
2022-10-31T18:19:48.205Z,23.38
2022-10-31T18:22:17.640Z,23.67
2022-10-31T18:24:46.778Z,16.42
2022-10-31T18:27:17.685Z,20.77
2022-10-31T18:29:46.930Z,24.25
2022-10-31T18:32:16.316Z,24.23
2022-10-31T18:34:45.579Z,23.85
2022-10-31T18:37:14.948Z,23.88
2022-10-31T18:39:44.190Z,23.27
2022-10-31T18:44:45.463Z,22.60
2022-10-31T18:47:14.869Z,24.92
2022-10-31T18:49:44.199Z,24.50
2022-10-31T18:52:13.538Z,28.55
2022-10-31T18:57:12.067Z,24.38
2022-10-31T18:59:41.226Z,26.60
2022-10-31T19:04:44.663Z,24.05
2022-10-31T19:07:13.986Z,25.55
2022-10-31T19:09:43.745Z,25.38
2022-10-31T19:12:13.113Z,23.10
2022-10-31T19:14:42.675Z,25.17
2022-10-31T19:17:13.488Z,26.13
2022-10-31T19:19:43.458Z,22.40
2022-10-31T19:22:12.864Z,23.88
2022-10-31T19:27:11.896Z,25.30
2022-10-31T19:29:42.384Z,25.30
2022-10-31T19:32:13.263Z,29.25
2022-10-31T19:34:42.744Z,30.85
2022-10-31T19:37:12.145Z,29.63
2022-10-31T19:42:15.099Z,27.15
2022-10-31T19:47:15.493Z,28.45
2022-10-31T19:49:44.790Z,31.70
2022-10-31T19:52:14.293Z,28.58
2022-10-31T19:54:43.743Z,30.30
2022-10-31T19:57:13.574Z,29.80
2022-10-31T19:59:43.062Z,30.98
2022-10-31T20:02:19.892Z,29.92
2022-10-31T20:04:49.965Z,31.52
2022-10-31T20:07:20.296Z,30.80
2022-10-31T20:12:18.623Z,29.30
2022-10-31T20:14:47.724Z,32.28
2022-10-31T20:17:18.810Z,29.02
2022-10-31T20:19:48.148Z,30.10
2022-10-31T20:24:46.763Z,29.77
2022-10-31T20:29:45.208Z,27.20
2022-10-31T20:32:14.519Z,26.48
2022-10-31T20:34:45.449Z,26.00
2022-10-31T20:37:15.191Z,25.73
2022-10-31T20:42:13.516Z,25.17
2022-10-31T20:44:42.643Z,26.17
2022-10-31T20:49:41.019Z,22.77
2022-10-31T20:52:12.113Z,25.63
2022-10-31T20:54:41.711Z,27.75
2022-10-31T20:57:11.198Z,25.20
2022-10-31T21:02:10.491Z,29.25
2022-10-31T21:04:39.857Z,30.60
2022-10-31T21:07:09.199Z,29.67
2022-10-31T21:09:39.867Z,29.33
2022-10-31T21:12:09.336Z,30.20
2022-10-31T21:14:38.988Z,34.60
2022-10-31T21:17:08.757Z,34.25
2022-10-31T21:19:38.083Z,32.35
2022-10-31T21:24:42.229Z,33.25
2022-10-31T21:27:12.547Z,32.70
2022-10-31T21:29:42.219Z,36.95
2022-10-31T21:32:11.591Z,34.80
2022-10-31T21:34:40.850Z,32.53
2022-10-31T21:37:10.444Z,31.90
2022-10-31T21:39:40.984Z,28.77
2022-10-31T21:42:10.583Z,29.75
2022-10-31T21:44:39.761Z,26.25
2022-10-31T21:49:38.361Z,25.85
2022-10-31T21:52:07.713Z,26.75
2022-10-31T21:54:37.387Z,24.35
2022-10-31T21:57:08.467Z,24.17
2022-10-31T21:59:37.899Z,20.38
2022-10-31T22:04:36.668Z,21.48
2022-10-31T22:09:34.951Z,23.98
2022-10-31T22:12:06.732Z,22.45
2022-10-31T22:14:37.558Z,22.95
2022-10-31T22:17:07.199Z,20.42
2022-10-31T22:19:36.566Z,20.25
2022-10-31T22:24:34.909Z,16.20
2022-10-31T22:27:04.536Z,17.42
2022-10-31T22:29:37.591Z,19.05
2022-10-31T22:32:07.497Z,18.88
2022-10-31T22:34:36.771Z,18.42
2022-10-31T22:37:06.103Z,16.70
2022-10-31T22:39:35.213Z,15.70
2022-10-31T22:42:04.650Z,14.45
2022-10-31T22:44:33.762Z,13.82
2022-10-31T22:47:04.748Z,14.77
2022-10-31T22:49:34.087Z,13.50
2022-10-31T22:52:03.671Z,16.80
2022-10-31T22:57:02.226Z,18.08
2022-10-31T22:59:31.438Z,15.27
2022-10-31T23:02:00.953Z,15.82
2022-10-31T23:07:00.754Z,16.10
2022-10-31T23:09:30.158Z,16.90
2022-10-31T23:12:19.589Z,14.60
2022-10-31T23:14:47.781Z,12.35
2022-10-31T23:17:18.739Z,12.33
2022-10-31T23:19:49.435Z,14.35
2022-10-31T23:22:18.845Z,14.43
2022-10-31T23:24:48.857Z,12.05
2022-10-31T23:27:19.510Z,19.50
2022-10-31T23:29:50.839Z,15.57
2022-10-31T23:32:22.998Z,25.67
2022-10-31T23:34:55.576Z,18.63
2022-10-31T23:37:27.042Z,17.73
2022-10-31T23:39:56.362Z,14.50
2022-10-31T23:44:56.335Z,12.38
2022-10-31T23:47:26.144Z,20.95
2022-10-31T23:49:56.768Z,13.50
2022-10-31T23:52:26.307Z,11.40
2022-10-31T23:54:55.534Z,14.30
2022-10-31T23:59:53.845Z,12.40
